createdAt,value
2023-05-19T00:01:48.124Z,101302.41
2023-05-19T00:06:52.707Z,101298.97
2023-05-19T00:11:56.632Z,101295.59
2023-05-19T00:17:01.916Z,101291.31
2023-05-19T00:22:06.349Z,101286.03
2023-05-19T00:27:09.199Z,101281.84
2023-05-19T00:32:12.154Z,101278.50
2023-05-19T00:37:16.447Z,101270.63
2023-05-19T00:42:19.261Z,101263.66
2023-05-19T00:47:22.100Z,101270.06
2023-05-19T00:52:26.367Z,101268.69
2023-05-19T00:57:29.317Z,101267.06
2023-05-19T01:02:32.327Z,101277.16
2023-05-19T01:07:36.756Z,101266.63
2023-05-19T01:12:39.632Z,101271.25
2023-05-19T01:17:46.805Z,101270.44
2023-05-19T01:23:24.770Z,101267.88
2023-05-19T01:28:33.056Z,101262.72
2023-05-19T01:33:37.297Z,101262.81
2023-05-19T01:38:40.302Z,101259.47
2023-05-19T01:43:43.842Z,101266.88
2023-05-19T01:48:48.727Z,101268.81
2023-05-19T01:53:51.565Z,101272.56
2023-05-19T01:58:55.171Z,101267.38
2023-05-19T02:04:14.740Z,101263.06
2023-05-19T02:09:19.875Z,101262.31
2023-05-19T02:14:26.045Z,101266.06
2023-05-19T02:19:33.233Z,101267.00
2023-05-19T02:24:36.673Z,101267.97
2023-05-19T02:29:39.540Z,101253.78
2023-05-19T02:34:48.291Z,101248.41
2023-05-19T02:39:51.128Z,101247.63
2023-05-19T02:44:55.363Z,101246.03
2023-05-19T02:49:59.569Z,101244.28
2023-05-19T02:55:02.492Z,101259.63
2023-05-19T03:00:09.006Z,101253.41
2023-05-19T03:05:14.216Z,101250.81
2023-05-19T03:10:16.993Z,101248.13
2023-05-19T03:15:22.604Z,101250.06
2023-05-19T03:20:26.717Z,101256.50
2023-05-19T03:25:30.006Z,101259.25
2023-05-19T03:30:33.299Z,101261.19
2023-05-19T03:35:52.971Z,101261.31
2023-05-19T03:40:56.165Z,101256.91
2023-05-19T03:45:59.090Z,101264.19
2023-05-19T03:51:22.061Z,101257.09
2023-05-19T03:56:27.837Z,101265.16
2023-05-19T04:01:30.695Z,101265.34
2023-05-19T04:06:36.351Z,101259.22
2023-05-19T04:11:39.653Z,101259.97
2023-05-19T04:16:42.671Z,101267.16
2023-05-19T04:21:47.022Z,101281.44
2023-05-19T04:26:49.968Z,101277.03
2023-05-19T04:31:54.335Z,101269.84
2023-05-19T04:36:59.192Z,101260.94
2023-05-19T04:42:02.715Z,101271.47
2023-05-19T04:47:08.847Z,101264.28
2023-05-19T04:52:13.448Z,101275.81
2023-05-19T04:57:17.314Z,101279.25
2023-05-19T05:02:21.687Z,101275.59
2023-05-19T05:07:26.077Z,101264.75
2023-05-19T05:12:30.081Z,101258.31
2023-05-19T05:17:33.830Z,101269.84
2023-05-19T05:22:39.548Z,101262.53
2023-05-19T05:27:43.716Z,101273.94
2023-05-19T05:32:46.813Z,101276.50
2023-05-19T05:38:05.604Z,101261.47
2023-05-19T05:43:09.035Z,101269.06
2023-05-19T05:48:18.688Z,101275.19
2023-05-19T05:53:23.318Z,101281.53
2023-05-19T05:58:29.221Z,101285.06
2023-05-19T06:03:33.547Z,101284.00
2023-05-19T06:08:42.427Z,101281.25
2023-05-19T06:13:45.604Z,101276.63
2023-05-19T06:18:57.048Z,101287.25
2023-05-19T06:24:01.318Z,101293.38
2023-05-19T06:29:04.212Z,101281.13
2023-05-19T06:34:07.802Z,101285.72
2023-05-19T06:39:12.396Z,101288.41
2023-05-19T06:44:15.747Z,101288.41
2023-05-19T06:49:24.017Z,101299.09
2023-05-19T06:54:28.540Z,101297.16
2023-05-19T06:59:33.062Z,101293.38
2023-05-19T07:04:36.433Z,101302.13
2023-05-19T07:09:40.815Z,101285.13
2023-05-19T07:14:44.187Z,101293.09
2023-05-19T07:19:48.217Z,101287.63
2023-05-19T07:24:53.287Z,101299.13
2023-05-19T07:29:56.238Z,101276.75
2023-05-19T07:34:59.106Z,101256.97
2023-05-19T07:40:03.311Z,101267.50
2023-05-19T07:45:07.216Z,101275.03
2023-05-19T07:50:10.545Z,101279.13
2023-05-19T07:55:14.980Z,101273.94
2023-05-19T08:00:19.411Z,101275.19
2023-05-19T08:05:22.538Z,101268.28
2023-05-19T08:10:26.775Z,101267.66
2023-05-19T08:15:29.805Z,101276.84
2023-05-19T08:20:34.143Z,101260.56
2023-05-19T08:25:38.601Z,101266.19
2023-05-19T08:30:41.618Z,101263.06
2023-05-19T08:35:44.678Z,101261.84
2023-05-19T08:40:49.197Z,101251.00
2023-05-19T08:45:54.117Z,101247.16
2023-05-19T08:51:00.050Z,101235.44
2023-05-19T08:56:10.620Z,101246.94
2023-05-19T09:01:16.750Z,101249.25
2023-05-19T09:06:20.028Z,101248.16
2023-05-19T09:11:24.398Z,101237.31
2023-05-19T09:16:29.372Z,101240.75
2023-05-19T09:21:33.268Z,101236.91
2023-05-19T09:26:41.279Z,101235.50
2023-05-19T09:31:50.049Z,101221.88
2023-05-19T09:36:54.044Z,101209.72
2023-05-19T09:41:58.972Z,101204.34
2023-05-19T09:47:02.470Z,101198.78
2023-05-19T09:52:06.163Z,101191.47
2023-05-19T09:57:10.398Z,101198.25
2023-05-19T10:02:16.200Z,101184.81
2023-05-19T10:07:19.619Z,101183.97
2023-05-19T10:12:23.956Z,101173.19
2023-05-19T10:17:27.170Z,101165.88
2023-05-19T10:22:30.070Z,101162.13
2023-05-19T10:27:35.728Z,101167.06
2023-05-19T10:32:39.599Z,101156.94
2023-05-19T10:37:46.230Z,101154.81
2023-05-19T10:42:58.906Z,101165.97
2023-05-19T10:48:02.565Z,101148.47
2023-05-19T10:53:05.518Z,101147.06
2023-05-19T10:58:10.379Z,101140.50
2023-05-19T11:03:14.538Z,101138.47
2023-05-19T11:08:17.997Z,101141.16
2023-05-19T11:13:23.027Z,101158.25
2023-05-19T11:18:26.111Z,101140.78
2023-05-19T11:23:29.054Z,101132.38
2023-05-19T11:28:33.457Z,101124.63
2023-05-19T14:19:55.818Z,101066.84
2023-05-19T14:25:00.323Z,101060.72
2023-05-19T14:30:03.415Z,101063.72
2023-05-19T14:35:08.700Z,101062.34
2023-05-19T14:40:12.749Z,101071.94
2023-05-19T14:45:16.102Z,101081.88
2023-05-19T14:50:20.449Z,101074.97
2023-05-19T14:55:23.312Z,101066.50
2023-05-19T15:00:26.256Z,101065.53
2023-05-19T15:05:30.573Z,101060.13
2023-05-19T15:10:33.764Z,101064.28
2023-05-19T15:15:36.786Z,101061.69
2023-05-19T15:20:41.037Z,101078.03
2023-05-19T15:25:45.488Z,101078.91
2023-05-19T15:30:48.611Z,101058.94
2023-05-19T15:35:52.833Z,101061.50
2023-05-19T15:40:55.939Z,101058.94
2023-05-19T15:45:58.875Z,101057.94
2023-05-19T15:51:03.341Z,101066.47
2023-05-19T15:56:06.595Z,101065.72
2023-05-19T16:01:09.780Z,101052.81
2023-05-19T16:06:14.163Z,101074.03
2023-05-19T16:11:18.229Z,101050.69
2023-05-19T16:16:21.215Z,101048.47
2023-05-19T16:21:25.529Z,101056.81
2023-05-19T16:26:28.919Z,101045.88
2023-05-19T16:31:31.827Z,101056.09
2023-05-19T16:36:36.483Z,101055.31
2023-05-19T16:41:41.889Z,101068.59
2023-05-19T16:46:44.847Z,101051.88
2023-05-19T16:51:49.055Z,101077.56
2023-05-19T16:56:52.173Z,101071.28
2023-05-19T17:01:56.027Z,101060.72
2023-05-19T17:07:00.338Z,101060.09
2023-05-19T17:12:03.305Z,101066.72
2023-05-19T17:17:06.353Z,101060.19
2023-05-19T17:22:10.728Z,101064.41
2023-05-19T17:27:15.004Z,101068.53
2023-05-19T17:32:18.100Z,101078.09
2023-05-19T17:37:25.492Z,101082.56
2023-05-19T17:42:29.051Z,101087.75
2023-05-19T17:47:31.987Z,101081.50
2023-05-19T17:52:37.048Z,101085.03
2023-05-19T17:57:41.428Z,101077.19
2023-05-19T18:02:45.227Z,101083.31
2023-05-19T18:07:49.644Z,101077.53
2023-05-19T18:12:52.609Z,101086.56
2023-05-19T18:17:55.575Z,101065.50
2023-05-19T18:23:00.146Z,101067.94
2023-05-19T18:28:03.095Z,101073.78
2023-05-19T18:33:07.442Z,101067.78
2023-05-19T18:38:11.724Z,101072.66
2023-05-19T18:43:14.618Z,101066.66
2023-05-19T18:48:17.589Z,101076.72
2023-05-19T18:53:22.027Z,101079.47
2023-05-19T18:58:25.033Z,101087.13
2023-05-19T19:03:28.608Z,101096.31
2023-05-19T19:08:32.944Z,101090.25
2023-05-19T19:13:35.948Z,101098.00
2023-05-19T19:18:39.152Z,101087.34
2023-05-19T19:23:43.448Z,101100.41
2023-05-19T19:28:46.559Z,101105.75
2023-05-19T19:33:49.525Z,101102.56
2023-05-19T19:38:53.768Z,101106.72
2023-05-19T19:43:56.694Z,101109.78
2023-05-19T19:49:00.425Z,101120.41
2023-05-19T19:54:04.691Z,101125.59
2023-05-19T19:59:07.653Z,101107.47
2023-05-19T20:05:16.001Z,101116.59
2023-05-19T20:10:20.304Z,101119.53
2023-05-19T20:15:23.110Z,101125.06
2023-05-19T20:20:25.934Z,101122.69
2023-05-19T20:25:30.146Z,101126.25
2023-05-19T20:30:33.407Z,101130.66
2023-05-19T20:35:36.454Z,101131.16
2023-05-19T20:40:40.803Z,101125.28
2023-05-19T20:45:44.044Z,101123.34
2023-05-19T20:50:46.863Z,101124.44
2023-05-19T20:55:51.046Z,101127.97
2023-05-19T21:00:57.557Z,101131.53
2023-05-19T21:06:00.974Z,101129.50
2023-05-19T21:11:05.182Z,101124.91
2023-05-19T21:16:08.185Z,101126.94
2023-05-19T21:21:11.005Z,101136.84
2023-05-19T21:26:15.387Z,101138.91
2023-05-19T21:31:18.286Z,101133.66
2023-05-19T21:36:21.193Z,101140.00
2023-05-19T21:41:25.370Z,101144.50
2023-05-19T21:46:29.187Z,101144.50
2023-05-19T21:51:34.941Z,101155.06
2023-05-19T21:56:39.578Z,101150.66
2023-05-19T22:01:42.534Z,101147.97
2023-05-19T22:06:45.549Z,101140.63
2023-05-19T22:11:49.810Z,101133.41
2023-05-19T22:16:52.723Z,101128.88
2023-05-19T22:22:01.941Z,101129.50
2023-05-19T22:27:14.278Z,101136.66
2023-05-19T22:32:18.359Z,101129.31
2023-05-19T22:37:22.647Z,101132.75
2023-05-19T22:42:27.040Z,101141.69
2023-05-19T22:47:29.953Z,101139.84
2023-05-19T22:52:32.840Z,101139.72
2023-05-19T22:57:37.026Z,101131.66
2023-05-19T23:02:39.855Z,101130.56
2023-05-19T23:07:42.709Z,101135.06
2023-05-19T23:12:46.992Z,101132.31
2023-05-19T23:17:49.832Z,101127.84
2023-05-19T23:22:52.634Z,101135.00
2023-05-19T23:27:56.795Z,101127.66
2023-05-19T23:32:59.641Z,101122.47
2023-05-19T23:38:02.531Z,101119.78
2023-05-19T23:43:06.845Z,101105.25
2023-05-19T23:48:09.686Z,101105.13
2023-05-19T23:53:12.500Z,101112.34
2023-05-19T23:58:16.613Z,101107.72
